Corning, Iowa
Current Conditions -  °F | °C
As of 11:55 AM on Monday 24 Nov 2014 (Local Time) from KCSQ Reporting Station
Overcast Overcast  
Wind Chill: -12°   Ceiling: 2200
Heat Index: -3°   Visibility: 10mi
Dew Point: -7°   Wind: 29mph
Humidity: 74%   Direction: 300°WNW
Pressure: 29.66"   Gusts: NA
Location:  40.99°N, 94.74°W
Report Text: KCSQ 241755Z AUTO 30025KT 10SM OVC022 M03/M07 A2966 RMK AO2
Loading
Personal Weather Stations






























Interactive Weather Map New forecast layout! Learn more

10-Day Weather Forecast

Advertisements
Track Severe Weather on mobile